createdAt,value
2023-02-27T00:00:00.254Z,977.7
2023-02-27T00:01:00.267Z,977.7
2023-02-27T00:02:00.234Z,978
2023-02-27T00:03:00.292Z,977.7
2023-02-27T00:04:00.311Z,978
2023-02-27T00:05:00.254Z,978
2023-02-27T00:06:00.251Z,977.7
2023-02-27T00:07:00.240Z,978
2023-02-27T00:08:00.249Z,977.7
2023-02-27T00:09:00.316Z,977.7
2023-02-27T00:10:00.271Z,978
2023-02-27T00:11:00.267Z,978
2023-02-27T00:12:00.240Z,978
2023-02-27T00:13:00.239Z,978
2023-02-27T00:14:00.244Z,978
2023-02-27T00:15:00.268Z,978.2
2023-02-27T00:16:00.324Z,978
2023-02-27T00:17:00.265Z,978
2023-02-27T00:18:00.252Z,978
2023-02-27T00:19:00.244Z,977.7
2023-02-27T00:20:00.262Z,978
2023-02-27T00:21:00.272Z,978
2023-02-27T00:22:00.260Z,978
2023-02-27T00:23:00.250Z,978
2023-02-27T00:24:00.253Z,978.2
2023-02-27T00:25:00.336Z,978
2023-02-27T00:26:00.271Z,978
2023-02-27T00:27:00.272Z,978
2023-02-27T00:28:00.266Z,978
2023-02-27T00:29:00.264Z,978
2023-02-27T00:30:00.266Z,978.2
2023-02-27T00:31:00.429Z,978.4
2023-02-27T00:32:00.485Z,978.4
2023-02-27T00:33:00.288Z,978.4
2023-02-27T00:34:00.276Z,978.2
2023-02-27T00:35:00.272Z,978.2
2023-02-27T00:36:00.266Z,978.4
2023-02-27T00:37:00.284Z,978.4
2023-02-27T00:38:00.276Z,978.6
2023-02-27T00:39:00.260Z,978.6
2023-02-27T00:40:00.259Z,978.8
2023-02-27T00:41:00.284Z,978.6
2023-02-27T00:42:00.284Z,978.6
2023-02-27T00:43:00.284Z,978.8
2023-02-27T00:44:00.263Z,978.8
2023-02-27T00:45:00.269Z,978.8
2023-02-27T00:46:00.277Z,978.8
2023-02-27T00:47:00.296Z,978.8
2023-02-27T00:48:00.286Z,978.8
2023-02-27T00:49:00.274Z,978.8
2023-02-27T00:50:00.293Z,978.8
2023-02-27T00:51:00.286Z,978.8
2023-02-27T00:52:00.293Z,978.8
2023-02-27T00:53:00.293Z,979
2023-02-27T00:54:00.301Z,979
2023-02-27T00:55:00.285Z,978.8
2023-02-27T00:56:00.302Z,978.8
2023-02-27T00:57:00.285Z,978.8
2023-02-27T00:58:00.329Z,978.8
2023-02-27T00:59:00.307Z,979.3
2023-02-27T01:00:00.328Z,979
2023-02-27T01:01:00.347Z,978.8
2023-02-27T01:02:00.291Z,978.8
2023-02-27T01:03:00.320Z,978.8
2023-02-27T01:04:00.296Z,978.8
2023-02-27T01:05:00.316Z,978.8
2023-02-27T01:06:00.311Z,978.8
2023-02-27T01:07:00.301Z,978.8
2023-02-27T01:08:00.295Z,978.8
2023-02-27T01:09:00.300Z,978.8
2023-02-27T01:10:00.331Z,978.8
2023-02-27T01:11:00.341Z,979
2023-02-27T01:12:00.319Z,979
2023-02-27T01:13:00.314Z,978.8
2023-02-27T01:14:00.402Z,978.8
2023-02-27T01:15:00.348Z,978.8
2023-02-27T01:16:00.469Z,978.8
2023-02-27T01:17:00.317Z,978.8
2023-02-27T01:18:00.313Z,978.8
2023-02-27T01:19:00.335Z,978.8
2023-02-27T01:20:00.352Z,978.8
2023-02-27T01:21:00.344Z,978.8
2023-02-27T01:22:00.322Z,978.8
2023-02-27T01:23:00.326Z,978.8
2023-02-27T01:24:00.319Z,978.8
2023-02-27T01:25:00.342Z,978.6
2023-02-27T01:26:00.351Z,978.8
2023-02-27T01:27:00.332Z,978.6
2023-02-27T01:28:00.349Z,978.4
2023-02-27T01:29:00.330Z,978.6
2023-02-27T01:30:00.367Z,978.6
2023-02-27T01:31:00.415Z,978.6
2023-02-27T01:32:00.416Z,978.6
2023-02-27T01:33:00.335Z,978.6
2023-02-27T01:34:00.358Z,978.6
2023-02-27T01:35:00.357Z,978.4
2023-02-27T01:36:00.340Z,978.4
2023-02-27T01:37:00.335Z,978.6
2023-02-27T01:38:00.332Z,978.4
2023-02-27T01:39:00.342Z,978.6
2023-02-27T01:40:00.358Z,978.8
2023-02-27T01:41:00.348Z,978.6
2023-02-27T01:42:00.349Z,978.6
2023-02-27T01:43:00.337Z,978.6
2023-02-27T01:44:00.433Z,978.8
2023-02-27T01:45:00.360Z,978.8
2023-02-27T01:46:00.421Z,978.4
2023-02-27T01:47:00.359Z,978.4
2023-02-27T01:48:00.343Z,978.6
2023-02-27T01:49:00.340Z,978.6
2023-02-27T01:50:00.373Z,978.6
2023-02-27T01:51:00.345Z,978.8
2023-02-27T01:52:00.351Z,978.8
2023-02-27T01:53:00.342Z,978.8
2023-02-27T01:54:01.024Z,978.8
2023-02-27T01:55:00.377Z,978.8
2023-02-27T01:56:00.352Z,978.8
2023-02-27T01:57:00.372Z,978.8
2023-02-27T01:58:00.354Z,978.8
2023-02-27T01:59:00.381Z,978.8
2023-02-27T02:00:02.894Z,978.8
2023-02-27T02:01:00.648Z,978.8
2023-02-27T02:02:00.358Z,978.8
2023-02-27T02:03:00.504Z,978.8
2023-02-27T02:04:00.357Z,978.8
2023-02-27T02:05:00.369Z,978.8
2023-02-27T02:06:00.376Z,978.8
2023-02-27T02:07:00.400Z,978.8
2023-02-27T02:08:00.350Z,978.8
2023-02-27T02:09:00.467Z,978.8
2023-02-27T02:10:00.406Z,978.8
2023-02-27T02:11:00.474Z,978.8
2023-02-27T02:12:00.467Z,978.8
2023-02-27T02:13:00.405Z,978.8
2023-02-27T02:14:00.468Z,978.8
2023-02-27T02:15:00.432Z,978.6
2023-02-27T02:16:00.485Z,978.8
2023-02-27T02:17:00.490Z,978.6
2023-02-27T02:18:00.462Z,978.8
2023-02-27T02:19:00.485Z,978.6
2023-02-27T02:20:00.481Z,978.4
2023-02-27T02:21:00.498Z,978.4
2023-02-27T02:23:00.491Z,978.6
2023-02-27T02:24:00.480Z,978.6
2023-02-27T02:25:00.437Z,978.6
2023-02-27T02:26:00.508Z,978.8
2023-02-27T02:27:00.468Z,978.6
2023-02-27T02:28:00.430Z,978.4
2023-02-27T02:29:00.432Z,978.4
2023-02-27T02:30:00.459Z,978.8
2023-02-27T02:31:00.543Z,978.6
2023-02-27T02:32:00.557Z,978.6
2023-02-27T02:33:00.427Z,978.6
2023-02-27T02:34:00.425Z,978.4
2023-02-27T02:35:00.432Z,978.4
2023-02-27T02:36:00.441Z,978.2
2023-02-27T02:37:00.399Z,978.4
2023-02-27T02:38:00.392Z,978.4
2023-02-27T02:39:00.392Z,978.6
2023-02-27T02:40:00.427Z,978.6
2023-02-27T02:41:00.403Z,978.4
2023-02-27T02:42:00.387Z,978.4
2023-02-27T02:43:00.398Z,978.4
2023-02-27T02:44:00.395Z,978.4
2023-02-27T02:45:00.413Z,978.4
2023-02-27T02:46:00.420Z,978.4
2023-02-27T02:47:00.395Z,978
2023-02-27T02:48:00.398Z,978
2023-02-27T02:49:00.412Z,978
2023-02-27T02:50:00.398Z,978
2023-02-27T02:51:00.417Z,978.2
2023-02-27T02:52:00.400Z,978
2023-02-27T02:53:00.400Z,978
2023-02-27T02:54:00.420Z,978
2023-02-27T02:55:00.426Z,978
2023-02-27T02:56:00.435Z,978
2023-02-27T02:57:00.416Z,978
2023-02-27T02:58:00.414Z,978
2023-02-27T02:59:00.422Z,978.2
2023-02-27T03:00:00.417Z,978
2023-02-27T03:01:00.835Z,978
2023-02-27T03:02:00.808Z,978
2023-02-27T03:03:00.816Z,978.2
2023-02-27T03:04:00.830Z,978.2
2023-02-27T03:05:00.831Z,978
2023-02-27T03:06:00.832Z,978.2
2023-02-27T03:07:00.820Z,978.2
2023-02-27T03:08:01.295Z,978.2
2023-02-27T03:09:00.837Z,978
2023-02-27T03:10:00.937Z,978
2023-02-27T03:11:00.848Z,978
2023-02-27T03:12:00.826Z,978
2023-02-27T03:13:00.824Z,978
2023-02-27T03:14:00.843Z,978.2
2023-02-27T03:15:00.842Z,978.2
2023-02-27T03:16:00.900Z,978.2
2023-02-27T03:17:00.829Z,978.4
2023-02-27T03:18:00.829Z,978.4
2023-02-27T03:19:00.844Z,978.4
2023-02-27T03:20:00.883Z,978.2
2023-02-27T03:21:00.842Z,978.2
2023-02-27T03:22:00.831Z,978.2
2023-02-27T03:23:00.838Z,978.4
2023-02-27T03:24:00.889Z,978.4
2023-02-27T03:25:00.829Z,978.4
2023-02-27T03:26:00.850Z,978.4
2023-02-27T03:27:00.838Z,978.4
2023-02-27T03:28:00.854Z,978.4
2023-02-27T03:29:00.853Z,978.6
2023-02-27T03:30:00.861Z,978.6
2023-02-27T03:31:01.052Z,978.6
2023-02-27T03:32:00.938Z,978.4
2023-02-27T03:33:00.835Z,978.4
2023-02-27T03:34:01.600Z,978.6
2023-02-27T03:35:00.845Z,978.8
2023-02-27T03:36:00.878Z,978.8
2023-02-27T03:37:00.837Z,978.6
2023-02-27T03:38:00.853Z,978.6
2023-02-27T03:39:00.849Z,978.8
2023-02-27T03:40:00.857Z,978.6
2023-02-27T03:41:00.870Z,978.6
2023-02-27T03:42:00.864Z,978.8
2023-02-27T03:43:00.844Z,978.6
2023-02-27T03:44:00.866Z,978.8
2023-02-27T03:45:00.869Z,978.8
2023-02-27T03:46:00.970Z,978.8
2023-02-27T03:47:00.871Z,978.8
2023-02-27T03:48:00.860Z,978.8
2023-02-27T03:49:00.866Z,978.8
2023-02-27T03:50:00.881Z,978.8
2023-02-27T03:51:00.869Z,978.8
2023-02-27T03:52:00.855Z,978.8
2023-02-27T03:53:00.860Z,979
2023-02-27T03:54:00.872Z,979.3
2023-02-27T03:55:00.854Z,979
2023-02-27T03:56:00.879Z,979.3
2023-02-27T03:57:00.867Z,979.3
2023-02-27T03:58:00.856Z,979.3
2023-02-27T03:59:00.875Z,979.3
2023-02-27T04:00:00.875Z,979.3
2023-02-27T04:01:00.887Z,979.3
2023-02-27T04:02:00.916Z,979.3
2023-02-27T04:03:00.881Z,979.3
2023-02-27T04:04:00.888Z,979.3
2023-02-27T04:05:00.870Z,979.3
2023-02-27T04:06:00.926Z,979.3
2023-02-27T04:07:00.872Z,979.5
2023-02-27T04:08:00.880Z,979.3
2023-02-27T04:09:00.880Z,979.5
2023-02-27T04:10:00.936Z,979.7
2023-02-27T04:11:00.899Z,979.7
2023-02-27T04:12:00.866Z,979.7
2023-02-27T04:13:00.879Z,979.7
2023-02-27T04:14:00.892Z,979.7
2023-02-27T04:15:00.890Z,979.7
2023-02-27T04:16:00.956Z,979.7
2023-02-27T04:17:00.885Z,979.7
2023-02-27T04:18:00.883Z,979.7
2023-02-27T04:19:00.906Z,979.7
2023-02-27T04:20:00.887Z,979.7
2023-02-27T04:21:00.880Z,979.7
2023-02-27T04:22:00.875Z,979.7
2023-02-27T04:23:00.896Z,979.7
2023-02-27T04:24:00.913Z,979.7
2023-02-27T04:25:00.921Z,979.7
2023-02-27T04:26:00.908Z,979.7
2023-02-27T04:27:00.883Z,979.7
2023-02-27T04:28:00.904Z,979.7
2023-02-27T04:29:00.890Z,979.7
2023-02-27T04:30:00.911Z,979.7
2023-02-27T04:31:01.008Z,979.7
2023-02-27T04:32:01.092Z,979.9
2023-02-27T04:33:00.898Z,979.7
2023-02-27T04:34:00.932Z,979.9
2023-02-27T04:35:00.928Z,980.1
2023-02-27T04:36:00.915Z,980.1
2023-02-27T04:37:00.934Z,979.9
2023-02-27T04:38:00.902Z,979.7
2023-02-27T04:39:00.917Z,979.7
2023-02-27T04:40:00.923Z,979.7
2023-02-27T04:41:00.926Z,979.7
2023-02-27T04:42:00.911Z,979.7
2023-02-27T04:43:00.930Z,980.1
2023-02-27T04:44:00.934Z,979.9
2023-02-27T04:45:00.920Z,979.7
2023-02-27T04:46:01.001Z,979.7
2023-02-27T04:47:00.927Z,979.7
2023-02-27T04:48:00.930Z,980.1
2023-02-27T04:49:00.924Z,980.1
2023-02-27T04:50:00.933Z,979.9
2023-02-27T04:51:00.939Z,980.1
2023-02-27T04:52:00.940Z,979.9
2023-02-27T04:53:00.927Z,980.1
2023-02-27T04:54:00.920Z,980.1
2023-02-27T04:55:00.923Z,980.1
2023-02-27T04:56:00.944Z,980.4
2023-02-27T04:57:00.921Z,980.4
2023-02-27T04:58:00.933Z,980.1
2023-02-27T04:59:00.942Z,980.4
2023-02-27T05:00:00.961Z,980.4
2023-02-27T05:01:00.945Z,980.1
2023-02-27T05:02:01.056Z,980.1
2023-02-27T05:03:01.095Z,980.1
2023-02-27T05:04:00.953Z,980.1
2023-02-27T05:05:00.966Z,980.1
2023-02-27T05:06:00.981Z,980.1
2023-02-27T05:07:00.954Z,980.1
2023-02-27T05:08:00.933Z,980.1
2023-02-27T05:09:00.940Z,980.1
2023-02-27T05:10:00.973Z,979.9
2023-02-27T05:11:00.961Z,979.9
2023-02-27T05:12:00.937Z,979.9
2023-02-27T05:13:00.956Z,979.9
2023-02-27T05:14:00.958Z,979.7
2023-02-27T05:15:00.946Z,979.7
2023-02-27T05:16:01.098Z,979.7
2023-02-27T05:17:00.969Z,979.7
2023-02-27T05:18:01.036Z,979.9
2023-02-27T05:19:00.964Z,979.9
2023-02-27T05:20:00.946Z,979.9
2023-02-27T05:21:00.955Z,979.9
2023-02-27T05:22:00.983Z,979.9
2023-02-27T05:23:00.261Z,979.9
2023-02-27T05:24:00.305Z,979.9
2023-02-27T05:25:00.261Z,979.7
2023-02-27T05:26:00.281Z,979.7
2023-02-27T05:27:00.286Z,980.1
2023-02-27T05:28:00.266Z,980.1
2023-02-27T05:29:00.274Z,980.1
2023-02-27T05:30:00.286Z,980.1
2023-02-27T05:31:00.280Z,980.1
2023-02-27T05:32:00.382Z,979.9
2023-02-27T05:33:00.280Z,980.1
2023-02-27T05:34:00.275Z,980.1
2023-02-27T05:35:00.263Z,980.1
2023-02-27T05:36:00.349Z,980.1
2023-02-27T05:37:00.264Z,980.1
2023-02-27T05:38:00.284Z,979.7
2023-02-27T05:39:00.281Z,979.7
2023-02-27T05:40:00.296Z,979.7
2023-02-27T05:41:00.288Z,979.7
2023-02-27T05:42:00.264Z,979.7
2023-02-27T05:43:00.294Z,979.7
2023-02-27T05:44:00.293Z,979.7
2023-02-27T05:45:00.276Z,979.7
2023-02-27T05:46:00.288Z,979.3
2023-02-27T05:47:00.264Z,979.5
2023-02-27T05:48:00.274Z,979.5
2023-02-27T05:49:00.285Z,979.5
2023-02-27T05:50:00.271Z,979.5
2023-02-27T05:51:00.301Z,979.5
2023-02-27T05:52:00.279Z,979.7
2023-02-27T05:53:00.277Z,979.5
2023-02-27T05:54:00.298Z,979.7
2023-02-27T05:55:00.292Z,979.5
2023-02-27T05:56:00.274Z,979.5
2023-02-27T05:57:00.292Z,979.5
2023-02-27T05:58:00.300Z,979.7
2023-02-27T05:59:00.288Z,979.5
2023-02-27T06:00:00.304Z,979.5
2023-02-27T06:01:00.294Z,979.3
2023-02-27T06:02:00.338Z,979.5
2023-02-27T06:03:00.349Z,979.5
2023-02-27T06:04:00.294Z,979.3
2023-02-27T06:05:00.349Z,979.3
2023-02-27T06:06:00.321Z,979.5
2023-02-27T06:07:00.299Z,979.7
2023-02-27T06:08:00.307Z,979.5
2023-02-27T06:09:00.294Z,979.7
2023-02-27T06:10:00.356Z,979.3
2023-02-27T06:11:00.390Z,979.3
2023-02-27T06:12:00.305Z,979.5
2023-02-27T06:13:00.325Z,979.5
2023-02-27T06:14:00.310Z,979.5
2023-02-27T06:15:00.311Z,979.3
2023-02-27T06:16:00.338Z,979.3
2023-02-27T06:17:00.377Z,979.3
2023-02-27T06:18:00.326Z,979.3
2023-02-27T06:19:00.323Z,979.7
2023-02-27T06:20:00.318Z,979.5
2023-02-27T06:21:00.345Z,979.7
2023-02-27T06:22:00.321Z,979.7
2023-02-27T06:23:00.327Z,979.7
2023-02-27T06:24:00.352Z,979.5
2023-02-27T06:25:00.333Z,979.3
2023-02-27T06:26:00.342Z,979.3
2023-02-27T06:27:00.346Z,979.3
2023-02-27T06:28:00.344Z,979.7
2023-02-27T06:29:00.324Z,979.3
2023-02-27T06:30:00.340Z,979.3
2023-02-27T06:31:00.407Z,979.3
2023-02-27T06:32:00.367Z,979.5
2023-02-27T06:33:00.342Z,979.3
2023-02-27T06:34:00.326Z,979.3
2023-02-27T06:35:00.329Z,979.3
2023-02-27T06:36:00.413Z,979.5
2023-02-27T06:37:01.545Z,979.7
2023-02-27T06:38:00.357Z,979.7
2023-02-27T06:39:00.347Z,979.7
2023-02-27T06:40:00.393Z,979.7
2023-02-27T06:41:00.347Z,979.7
2023-02-27T06:42:00.330Z,979.7
2023-02-27T06:43:00.344Z,979.7
2023-02-27T06:44:00.327Z,979.7
2023-02-27T06:45:00.352Z,979.5
2023-02-27T06:46:00.372Z,979.5
2023-02-27T06:47:00.355Z,979.5
2023-02-27T06:48:00.351Z,979.7
2023-02-27T06:49:00.341Z,979.5
2023-02-27T06:50:00.385Z,979.3
2023-02-27T06:51:00.336Z,979.7
2023-02-27T06:52:00.341Z,979.3
2023-02-27T06:53:00.367Z,979.3
2023-02-27T06:54:00.357Z,979.3
2023-02-27T06:55:00.356Z,979.3
2023-02-27T06:56:00.375Z,979.3
2023-02-27T06:57:00.346Z,979.3
2023-02-27T06:58:00.368Z,979
2023-02-27T06:59:00.363Z,979
2023-02-27T07:00:00.821Z,979.3
2023-02-27T07:01:00.349Z,979.3
2023-02-27T07:02:00.364Z,979.3
2023-02-27T07:03:00.374Z,979.3
2023-02-27T07:04:00.345Z,979.3
2023-02-27T07:05:00.417Z,979.3
2023-02-27T07:06:00.368Z,979.3
2023-02-27T07:07:36.133Z,979.3
2023-02-27T07:08:00.371Z,979
2023-02-27T07:09:06.325Z,979.3
2023-02-27T07:10:00.365Z,979
2023-02-27T07:11:00.391Z,979.3
2023-02-27T07:12:00.375Z,979.3
2023-02-27T07:13:00.384Z,979.3
2023-02-27T07:14:00.381Z,979
2023-02-27T07:15:00.371Z,978.8
2023-02-27T07:16:00.471Z,979
2023-02-27T07:17:00.390Z,979.3
2023-02-27T07:18:00.368Z,979
2023-02-27T07:19:00.396Z,979.3
2023-02-27T07:20:00.383Z,979
2023-02-27T07:21:00.390Z,979.3
2023-02-27T07:22:00.397Z,979.3
2023-02-27T07:23:00.371Z,979.3
2023-02-27T07:24:00.389Z,979
2023-02-27T07:25:00.367Z,979.3
2023-02-27T07:26:00.391Z,979.3
2023-02-27T07:27:00.396Z,979.3
2023-02-27T07:28:00.391Z,978.8
2023-02-27T07:29:00.433Z,978.8
2023-02-27T07:30:00.375Z,978.8
2023-02-27T07:31:00.453Z,978.8
2023-02-27T07:32:00.536Z,978.8
2023-02-27T07:33:00.376Z,978.8
2023-02-27T07:34:00.419Z,978.4
2023-02-27T07:35:00.534Z,978.2
2023-02-27T07:36:00.460Z,978.2
2023-02-27T07:37:00.397Z,978.4
2023-02-27T07:38:00.431Z,978.6
2023-02-27T07:39:00.387Z,978.6
2023-02-27T07:40:00.389Z,978
2023-02-27T07:41:00.470Z,978.2
2023-02-27T07:42:00.513Z,978.2
2023-02-27T07:43:00.410Z,978
2023-02-27T07:44:00.405Z,978
2023-02-27T07:45:00.404Z,978
2023-02-27T07:46:00.414Z,978.4
2023-02-27T07:47:00.426Z,978.4
2023-02-27T07:48:00.404Z,978
2023-02-27T07:49:00.398Z,978.2
2023-02-27T07:50:00.405Z,977.7
2023-02-27T07:51:00.432Z,977.7
2023-02-27T07:52:00.417Z,978
2023-02-27T07:53:00.413Z,978
2023-02-27T07:54:00.421Z,977.5
2023-02-27T07:55:00.429Z,978
2023-02-27T07:56:00.419Z,978
2023-02-27T07:57:00.421Z,978
2023-02-27T07:58:00.423Z,978
2023-02-27T07:59:00.411Z,978
2023-02-27T08:00:00.427Z,978
2023-02-27T08:01:00.426Z,978
2023-02-27T08:02:00.447Z,978
2023-02-27T08:03:00.491Z,978
2023-02-27T08:04:00.429Z,977.5
2023-02-27T08:05:00.416Z,977.5
2023-02-27T08:06:02.339Z,977.5
2023-02-27T08:07:00.424Z,977.5
2023-02-27T08:08:00.414Z,977.5
2023-02-27T08:09:00.435Z,977.5
2023-02-27T08:10:00.438Z,977.5
2023-02-27T08:11:00.435Z,977.3
2023-02-27T08:12:00.414Z,977.1
2023-02-27T08:13:00.437Z,977.3
2023-02-27T08:14:01.887Z,977.1
2023-02-27T08:15:00.429Z,977.1
2023-02-27T08:16:00.448Z,977.1
2023-02-27T08:17:00.456Z,977.3
2023-02-27T08:18:00.456Z,977.5
2023-02-27T08:19:00.440Z,977.5
2023-02-27T08:20:00.442Z,977.5
2023-02-27T08:21:00.449Z,977.3
2023-02-27T08:22:00.435Z,977.5
2023-02-27T08:23:00.436Z,977.5
2023-02-27T08:24:00.427Z,977.3
2023-02-27T08:25:00.445Z,977.1
2023-02-27T08:26:00.467Z,977.1
2023-02-27T08:27:00.452Z,977.1
2023-02-27T08:28:00.461Z,977.1
2023-02-27T08:29:00.436Z,977.1
2023-02-27T08:30:00.436Z,976.9
2023-02-27T08:31:00.465Z,977.1
2023-02-27T08:32:00.540Z,976.7
2023-02-27T08:33:00.464Z,976.7
2023-02-27T08:34:09.953Z,976.7
2023-02-27T08:35:00.467Z,976.7
2023-02-27T08:36:00.537Z,976.9
2023-02-27T08:37:00.437Z,977.1
2023-02-27T08:38:00.451Z,976.9
2023-02-27T08:39:00.436Z,977.1
2023-02-27T08:40:00.440Z,977.5
2023-02-27T08:41:00.467Z,977.5
2023-02-27T08:42:00.471Z,977.1
2023-02-27T08:43:00.465Z,977.1
2023-02-27T08:44:00.461Z,977.3
2023-02-27T08:45:00.442Z,977.1
2023-02-27T08:46:00.538Z,977.1
2023-02-27T08:47:00.457Z,977.1
2023-02-27T08:48:00.473Z,976.7
2023-02-27T08:49:00.456Z,976.9
2023-02-27T08:50:00.483Z,976.9
2023-02-27T08:51:00.481Z,976.7
2023-02-27T08:52:00.446Z,976.9
2023-02-27T08:53:00.462Z,976.7
2023-02-27T08:54:00.456Z,976.7
2023-02-27T08:55:00.477Z,976.2
2023-02-27T08:56:00.555Z,977.1
2023-02-27T08:57:00.458Z,977.1
2023-02-27T08:58:00.478Z,977.1
2023-02-27T08:59:00.466Z,977.1
2023-02-27T09:00:00.501Z,977.3
2023-02-27T09:01:00.542Z,977.1
2023-02-27T09:02:00.494Z,976.7
2023-02-27T09:03:00.558Z,976.4
2023-02-27T09:04:00.521Z,976.7
2023-02-27T09:05:00.480Z,976.7
2023-02-27T09:06:00.488Z,976.7
2023-02-27T09:07:00.470Z,976
2023-02-27T09:08:00.504Z,976.2
2023-02-27T09:09:00.468Z,976.7
2023-02-27T09:10:00.465Z,976.7
2023-02-27T09:11:00.490Z,976.4
2023-02-27T09:12:00.485Z,976.4
2023-02-27T09:13:00.542Z,976.2
2023-02-27T09:14:00.497Z,976.2
2023-02-27T09:15:00.474Z,976.2
2023-02-27T09:16:00.528Z,976.2
2023-02-27T09:17:00.516Z,976
2023-02-27T09:18:00.497Z,976.2
2023-02-27T09:19:00.484Z,976.2
2023-02-27T09:20:00.498Z,976.2
2023-02-27T09:21:00.505Z,976.2
2023-02-27T09:22:00.487Z,976
2023-02-27T09:23:00.502Z,976.2
2023-02-27T09:24:07.398Z,976.2
2023-02-27T09:25:00.482Z,976.2
2023-02-27T09:26:00.513Z,976.2
2023-02-27T09:27:00.525Z,976.2
2023-02-27T09:28:00.514Z,975.8
2023-02-27T09:29:00.499Z,975.4
2023-02-27T09:30:00.495Z,975.8
2023-02-27T09:31:00.511Z,975.8
2023-02-27T09:32:00.647Z,975.8
2023-02-27T09:33:00.521Z,976
2023-02-27T09:34:00.494Z,976.2
2023-02-27T09:35:00.500Z,976.2
2023-02-27T09:36:00.556Z,976
2023-02-27T09:37:00.496Z,976
2023-02-27T09:38:00.511Z,976.2
2023-02-27T09:39:00.517Z,975.8
2023-02-27T09:40:00.529Z,976
2023-02-27T09:41:00.572Z,976
2023-02-27T09:42:00.536Z,976.2
2023-02-27T09:43:00.590Z,975.8
2023-02-27T09:44:00.521Z,975.8
2023-02-27T09:45:00.509Z,976.2
2023-02-27T09:46:00.595Z,976.2
2023-02-27T09:47:00.519Z,976.2
2023-02-27T09:48:00.515Z,975.8
2023-02-27T09:49:00.512Z,976
2023-02-27T09:50:00.522Z,976.2
2023-02-27T09:51:00.535Z,975.8
2023-02-27T09:52:00.516Z,975.8
2023-02-27T09:53:00.572Z,975.8
2023-02-27T09:54:00.525Z,976
2023-02-27T09:55:00.539Z,976
2023-02-27T09:56:00.566Z,976.2
2023-02-27T09:57:00.539Z,975.8
2023-02-27T09:58:00.515Z,976
2023-02-27T09:59:00.543Z,976.2
2023-02-27T10:00:00.542Z,975.6
2023-02-27T10:01:00.537Z,975.8
2023-02-27T10:02:00.550Z,976
2023-02-27T10:03:00.539Z,975.8
2023-02-27T10:04:00.544Z,976
2023-02-27T10:05:00.626Z,975.8
2023-02-27T10:06:00.534Z,975.6
2023-02-27T10:07:00.545Z,975.6
2023-02-27T10:08:00.531Z,975.6
2023-02-27T10:09:00.536Z,975.4
2023-02-27T10:10:00.561Z,975.4
2023-02-27T10:11:00.542Z,975.6
2023-02-27T10:12:00.562Z,975.4
2023-02-27T10:13:00.536Z,975.1
2023-02-27T10:14:00.541Z,975.4
2023-02-27T10:15:00.573Z,975.4
2023-02-27T10:16:00.541Z,975.4
2023-02-27T10:17:00.569Z,974.9
2023-02-27T10:18:02.288Z,974.9
2023-02-27T10:19:00.546Z,975.4
2023-02-27T10:20:00.562Z,974.9
2023-02-27T10:21:00.548Z,974.7
2023-02-27T10:22:00.549Z,974.5
2023-02-27T10:23:00.548Z,974.5
2023-02-27T10:24:00.569Z,974.9
2023-02-27T10:25:00.572Z,974.9
2023-02-27T10:26:00.549Z,974.9
2023-02-27T10:27:00.571Z,974.9
2023-02-27T10:28:00.564Z,974.5
2023-02-27T10:29:00.573Z,974.9
2023-02-27T10:30:00.590Z,974.9
2023-02-27T10:31:00.591Z,974.5
2023-02-27T10:32:00.629Z,974.5
2023-02-27T10:33:00.563Z,974.5
2023-02-27T10:34:00.570Z,974.5
2023-02-27T10:35:00.581Z,974.5
2023-02-27T10:36:02.850Z,974.7
2023-02-27T10:37:00.569Z,974.7
2023-02-27T10:38:00.568Z,974.5
2023-02-27T10:39:00.563Z,974.5
2023-02-27T10:40:00.589Z,974.3
2023-02-27T10:41:00.599Z,974
2023-02-27T10:42:00.599Z,974.5
2023-02-27T10:43:00.988Z,974
2023-02-27T10:44:00.615Z,974.3
2023-02-27T10:45:00.598Z,973.6
2023-02-27T10:46:00.672Z,974
2023-02-27T10:47:00.579Z,974
2023-02-27T10:48:00.596Z,974.3
2023-02-27T10:49:00.655Z,974.3
2023-02-27T10:50:00.598Z,973.6
2023-02-27T10:51:00.566Z,974
2023-02-27T10:52:00.575Z,974.5
2023-02-27T10:53:00.574Z,974
2023-02-27T10:54:00.603Z,973.6
2023-02-27T10:55:00.598Z,973.8
2023-02-27T10:56:00.712Z,974.5
2023-02-27T10:57:00.626Z,974
2023-02-27T10:58:00.581Z,973.6
2023-02-27T10:59:00.597Z,973.6
2023-02-27T11:00:00.598Z,973.2
2023-02-27T11:01:00.588Z,973.2
2023-02-27T11:02:01.059Z,973.6
2023-02-27T11:03:00.992Z,973.6
2023-02-27T11:04:01.174Z,973.8
2023-02-27T11:05:01.218Z,973.4
2023-02-27T11:06:01.045Z,973.8
2023-02-27T11:07:00.833Z,974
2023-02-27T11:08:01.017Z,973.8
2023-02-27T11:09:00.604Z,973.6
2023-02-27T11:10:00.617Z,973.6
2023-02-27T11:11:00.613Z,973.2
2023-02-27T11:12:00.596Z,973.2
2023-02-27T11:13:00.624Z,973.4
2023-02-27T11:14:01.416Z,973.2
2023-02-27T11:15:00.609Z,973
2023-02-27T11:16:00.719Z,972.5
2023-02-27T11:17:00.652Z,972.5
2023-02-27T11:18:00.600Z,972.3
2023-02-27T11:19:00.619Z,972.1
2023-02-27T11:20:01.621Z,972.1
2023-02-27T11:21:00.600Z,972.7
2023-02-27T11:22:00.640Z,972.5
2023-02-27T11:23:00.677Z,972.1
2023-02-27T11:24:00.576Z,972.3
2023-02-27T11:25:01.362Z,972.1
2023-02-27T11:26:00.526Z,971.9
2023-02-27T11:27:00.481Z,972.3
2023-02-27T11:28:00.472Z,972.3
2023-02-27T11:29:00.420Z,971.9
2023-02-27T11:30:00.434Z,971.4
2023-02-27T11:31:00.436Z,971.7
2023-02-27T11:32:00.370Z,971.9
2023-02-27T11:33:00.346Z,971.9
2023-02-27T11:34:00.309Z,971.4
2023-02-27T11:35:00.320Z,970.8
2023-02-27T11:36:00.265Z,971
2023-02-27T11:37:00.386Z,971.2
2023-02-27T11:38:00.296Z,971.2
2023-02-27T11:39:00.196Z,971
2023-02-27T11:40:00.261Z,971.4
2023-02-27T11:41:00.343Z,971.4
2023-02-27T11:42:00.229Z,971.4
2023-02-27T11:43:00.220Z,971
2023-02-27T11:44:01.163Z,970.6
2023-02-27T11:45:00.263Z,971
2023-02-27T11:46:20.439Z,971
2023-02-27T11:47:00.399Z,971.4
2023-02-27T11:48:01.385Z,970.8
2023-02-27T11:49:00.355Z,970.6
2023-02-27T11:50:00.355Z,970.6
2023-02-27T11:51:00.368Z,970.1
2023-02-27T11:52:00.326Z,970.6
2023-02-27T11:53:00.494Z,970.6
2023-02-27T11:54:00.409Z,970.1
2023-02-27T11:55:00.377Z,970.6
2023-02-27T11:56:00.493Z,970.8
2023-02-27T11:57:00.412Z,970.6
2023-02-27T11:58:00.452Z,970.4
2023-02-27T11:59:00.481Z,970.1
2023-02-27T12:00:00.384Z,970.4
2023-02-27T12:01:00.498Z,969.7
2023-02-27T12:02:00.560Z,969.9
2023-02-27T12:03:00.471Z,970.1
2023-02-27T12:04:00.471Z,970.1
2023-02-27T12:05:00.343Z,970.1
2023-02-27T12:06:00.412Z,970.1
2023-02-27T12:07:00.321Z,969.9
2023-02-27T12:08:00.353Z,969.9
2023-02-27T12:09:00.429Z,970.1
2023-02-27T12:10:00.238Z,969.7
2023-02-27T12:11:12.842Z,969.9
2023-02-27T12:12:00.239Z,969
2023-02-27T12:13:00.244Z,969.7
2023-02-27T12:14:01.060Z,969.3
2023-02-27T12:15:00.471Z,969.3
2023-02-27T12:16:00.321Z,969.7
2023-02-27T12:17:00.251Z,969.7
2023-02-27T12:18:00.249Z,969.7
2023-02-27T12:19:00.261Z,969.7
2023-02-27T12:20:00.260Z,968.8
2023-02-27T12:21:00.280Z,968.8
2023-02-27T12:22:00.254Z,969.3
2023-02-27T12:23:00.256Z,969.3
2023-02-27T12:24:00.276Z,969.7
2023-02-27T12:25:00.241Z,969.7
2023-02-27T12:26:00.282Z,969.9
2023-02-27T12:27:00.247Z,968.8
2023-02-27T12:28:00.259Z,968.4
2023-02-27T12:29:00.277Z,968.4
2023-02-27T12:30:00.328Z,968.4
2023-02-27T12:31:00.277Z,968.8
2023-02-27T12:32:00.442Z,968.8
2023-02-27T12:33:00.262Z,969
2023-02-27T12:34:00.255Z,969
2023-02-27T12:35:00.260Z,969.3
2023-02-27T12:36:00.358Z,968.4
2023-02-27T12:37:00.264Z,969.3
2023-02-27T12:38:00.319Z,969
2023-02-27T12:39:00.254Z,968.8
2023-02-27T12:40:00.253Z,968.8
2023-02-27T12:41:00.274Z,968.6
2023-02-27T12:42:00.277Z,968.2
2023-02-27T12:43:00.270Z,968.4
2023-02-27T12:44:00.274Z,968.4
2023-02-27T12:45:00.282Z,968.4
2023-02-27T12:46:00.374Z,968
2023-02-27T12:47:00.270Z,967.3
2023-02-27T12:48:00.276Z,968
2023-02-27T12:49:00.262Z,968.4
2023-02-27T12:50:00.290Z,968
2023-02-27T12:51:00.284Z,968.4
2023-02-27T12:52:00.267Z,968.4
2023-02-27T12:53:00.292Z,968
2023-02-27T12:54:00.265Z,967.1
2023-02-27T12:55:00.280Z,967.7
2023-02-27T12:56:00.268Z,967.5
2023-02-27T12:57:00.265Z,967.5
2023-02-27T12:58:00.297Z,968
2023-02-27T12:59:00.277Z,968.6
2023-02-27T13:00:00.291Z,968.2